Time;durP1;ratioP1;P1;durP2;ratioP2;P2;SDS_P1;SDS_P2;PMS_P1;PMS_P2;Temp;Humidity;BMP_temperature;BMP_pressure;BME280_temperature;BME280_humidity;BME280_pressure;Samples;Min_cycle;Max_cycle;Signal;HPM_P1;HPM_P2
2021/07/05 00:00:45;;;;;;;0.45;0.45;;;23.70;63.20;;;;;;4974379;28;20422;-25
2021/07/05 00:03:11;;;;;;;0.57;0.57;;;23.70;63.10;;;;;;4974517;28;20034;-27
2021/07/05 00:05:37;;;;;;;0.50;0.50;;;23.70;62.90;;;;;;4974979;28;20035;-28
2021/07/05 00:08:02;;;;;;;0.68;0.55;;;23.70;62.70;;;;;;4973670;28;20062;-30
2021/07/05 00:10:28;;;;;;;0.60;0.60;;;23.70;63.00;;;;;;4968766;28;20524;-28
2021/07/05 00:12:54;;;;;;;0.80;0.55;;;23.70;63.20;;;;;;4973817;28;20511;-30
2021/07/05 00:15:22;;;;;;;0.60;0.60;;;23.70;62.40;;;;;;4974030;28;20556;-28
2021/07/05 00:17:50;;;;;;;0.30;0.30;;;23.70;62.90;;;;;;4973709;28;20077;-30
2021/07/05 00:20:15;;;;;;;0.35;0.35;;;23.70;62.70;;;;;;4974445;28;20489;-26
2021/07/05 00:22:41;;;;;;;1.25;0.50;;;23.70;62.90;;;;;;4988902;28;20109;-26
2021/07/05 00:25:07;;;;;;;0.60;0.40;;;23.70;62.50;;;;;;4973452;28;20518;-35
2021/07/05 00:27:32;;;;;;;0.40;0.40;;;23.70;62.80;;;;;;4973714;28;20058;-26
2021/07/05 00:29:58;;;;;;;0.70;0.50;;;23.70;62.60;;;;;;4973872;28;20038;-26
2021/07/05 00:32:24;;;;;;;0.43;0.40;;;23.70;62.70;;;;;;4972176;28;20070;-30
2021/07/05 00:34:50;;;;;;;0.40;0.40;;;23.70;62.40;;;;;;4973604;28;20030;-28
2021/07/05 00:37:15;;;;;;;0.52;0.43;;;23.70;62.60;;;;;;4973562;28;20031;-31
2021/07/05 00:39:41;;;;;;;0.52;0.52;;;23.70;62.70;;;;;;4974096;28;20054;-30
2021/07/05 00:42:06;;;;;;;0.65;0.30;;;23.70;62.60;;;;;;4973921;28;20030;-32
2021/07/05 00:44:32;;;;;;;0.50;0.50;;;23.70;62.60;;;;;;4973339;28;20445;-25
2021/07/05 00:46:58;;;;;;;0.40;0.35;;;23.70;62.90;;;;;;4974271;28;20031;-30
2021/07/05 00:49:23;;;;;;;0.40;0.30;;;23.70;62.40;;;;;;4972918;28;20034;-33
2021/07/05 00:51:49;;;;;;;0.40;0.40;;;23.60;62.90;;;;;;4973975;28;20027;-32
2021/07/05 00:54:14;;;;;;;0.43;0.43;;;23.60;62.80;;;;;;4974326;28;20043;-29
2021/07/05 00:56:41;;;;;;;0.40;0.40;;;23.60;62.70;;;;;;4985340;28;20035;-31
2021/07/05 00:59:07;;;;;;;0.43;0.43;;;23.60;63.10;;;;;;4972547;28;20041;-33
2021/07/05 01:01:32;;;;;;;0.45;0.45;;;23.60;62.70;;;;;;4972635;28;20039;-27
2021/07/05 01:03:58;;;;;;;0.32;0.32;;;23.60;62.90;;;;;;4973162;28;20482;-27
2021/07/05 01:06:24;;;;;;;0.40;0.30;;;23.60;62.80;;;;;;4974086;28;20039;-28
2021/07/05 01:08:49;;;;;;;0.45;0.38;;;23.60;62.80;;;;;;4973913;28;20023;-33
2021/07/05 01:11:17;;;;;;;0.47;0.32;;;23.60;62.80;;;;;;4989023;28;20038;-33
2021/07/05 01:13:42;;;;;;;0.50;0.43;;;23.60;62.80;;;;;;4988312;28;20113;-27
2021/07/05 01:16:08;;;;;;;0.50;0.50;;;23.60;62.80;;;;;;4973222;28;20115;-29
2021/07/05 01:18:34;;;;;;;0.40;0.40;;;23.60;62.70;;;;;;4973146;28;20588;-29
2021/07/05 01:21:00;;;;;;;0.35;0.35;;;23.60;63.00;;;;;;4973067;28;20045;-33
2021/07/05 01:23:26;;;;;;;0.40;0.40;;;23.60;62.80;;;;;;4974230;28;20055;-28
2021/07/05 01:25:52;;;;;;;0.65;0.63;;;23.60;62.70;;;;;;4973336;28;20031;-28
2021/07/05 01:28:17;;;;;;;0.90;0.30;;;23.60;62.70;;;;;;4973409;28;20042;-30
2021/07/05 01:30:43;;;;;;;0.30;0.30;;;23.60;62.70;;;;;;4972854;28;20118;-29
2021/07/05 01:33:09;;;;;;;0.50;0.47;;;23.60;62.60;;;;;;4973423;28;20054;-32
2021/07/05 01:35:34;;;;;;;0.47;0.43;;;23.60;62.70;;;;;;4973845;28;20019;-30
2021/07/05 01:38:00;;;;;;;1.25;0.40;;;23.60;62.90;;;;;;4973196;28;20030;-27
2021/07/05 01:40:26;;;;;;;0.65;0.43;;;23.60;62.70;;;;;;4973004;28;20050;-31
2021/07/05 01:42:54;;;;;;;0.40;0.40;;;23.60;62.80;;;;;;4972965;28;20045;-29
2021/07/05 01:45:24;;;;;;;0.40;0.40;;;23.60;62.80;;;;;;4973106;28;20045;-28
2021/07/05 01:47:49;;;;;;;0.38;0.38;;;23.50;62.90;;;;;;4972187;28;20027;-25
2021/07/05 01:50:15;;;;;;;0.40;0.40;;;23.50;62.80;;;;;;4973577;28;20038;-32
2021/07/05 01:52:41;;;;;;;0.43;0.32;;;23.50;62.90;;;;;;4973111;28;20066;-29
2021/07/05 01:55:07;;;;;;;0.50;0.40;;;23.50;62.80;;;;;;4972730;28;20029;-27
2021/07/05 01:57:36;;;;;;;0.30;0.22;;;23.50;62.90;;;;;;4973186;28;20398;-28
2021/07/05 02:00:12;;;;;;;0.40;0.40;;;23.50;62.80;;;;;;4972679;28;20116;-27
2021/07/05 02:02:37;;;;;;;2.05;0.50;;;23.50;62.90;;;;;;4973512;28;20634;-28
2021/07/05 02:05:08;;;;;;;0.95;0.45;;;23.50;62.80;;;;;;4972809;28;20044;-28
2021/07/05 02:07:34;;;;;;;0.30;0.28;;;23.50;62.70;;;;;;4972811;28;20429;-28
2021/07/05 02:10:00;;;;;;;0.20;0.20;;;23.50;62.80;;;;;;4972374;28;20034;-28
2021/07/05 02:12:26;;;;;;;0.50;0.30;;;23.50;62.70;;;;;;4972750;28;20034;-32
2021/07/05 02:14:51;;;;;;;0.52;0.30;;;23.50;62.80;;;;;;4971709;28;20026;-27
2021/07/05 02:17:17;;;;;;;0.20;0.20;;;23.50;62.90;;;;;;4972831;28;20256;-28
2021/07/05 02:19:43;;;;;;;0.25;0.25;;;23.50;62.80;;;;;;4972644;28;20088;-28
2021/07/05 02:22:08;;;;;;;0.40;0.40;;;23.50;62.80;;;;;;4972007;28;20474;-25
2021/07/05 02:24:34;;;;;;;0.20;0.20;;;23.50;62.80;;;;;;4972420;28;20039;-34
2021/07/05 02:27:00;;;;;;;0.22;0.20;;;23.50;63.00;;;;;;4972675;28;20038;-27
2021/07/05 02:29:25;;;;;;;0.25;0.25;;;23.50;62.80;;;;;;4972992;28;20027;-28
2021/07/05 02:31:51;;;;;;;0.40;0.30;;;23.40;62.70;;;;;;4972157;28;20502;-26
2021/07/05 02:34:17;;;;;;;0.57;0.28;;;23.50;63.70;;;;;;4972320;28;20584;-38
2021/07/05 02:36:42;;;;;;;0.57;0.30;;;23.40;62.80;;;;;;4972396;28;20057;-27
2021/07/05 02:39:08;;;;;;;0.30;0.30;;;23.40;62.90;;;;;;4972356;28;20409;-25
2021/07/05 02:41:34;;;;;;;0.40;0.30;;;23.40;62.80;;;;;;4972958;28;20545;-32
2021/07/05 02:44:00;;;;;;;0.20;0.20;;;23.50;62.80;;;;;;4987108;28;20031;-31
2021/07/05 02:46:26;;;;;;;0.30;0.30;;;23.40;62.80;;;;;;4971781;28;20042;-28
2021/07/05 02:48:51;;;;;;;0.20;0.20;;;23.40;62.80;;;;;;4972340;28;20027;-31
2021/07/05 02:51:17;;;;;;;0.20;0.20;;;23.40;62.80;;;;;;4972384;28;20486;-34
2021/07/05 02:53:43;;;;;;;0.20;0.20;;;23.40;62.80;;;;;;4973036;28;20027;-27
2021/07/05 02:56:09;;;;;;;0.20;0.20;;;23.40;62.80;;;;;;4972166;28;20121;-31
2021/07/05 02:58:34;;;;;;;0.20;0.20;;;23.40;62.90;;;;;;4972109;28;20069;-26
2021/07/05 03:01:00;;;;;;;0.17;0.17;;;23.40;62.80;;;;;;4971994;28;20063;-29
2021/07/05 03:03:26;;;;;;;0.22;0.20;;;23.40;62.80;;;;;;4968956;28;20031;-33
2021/07/05 03:05:52;;;;;;;0.10;0.10;;;23.40;62.90;;;;;;4971739;28;20046;-33
2021/07/05 03:08:18;;;;;;;0.38;0.22;;;23.40;62.90;;;;;;4972730;28;20031;-27
2021/07/05 03:10:44;;;;;;;0.20;0.20;;;23.40;62.90;;;;;;4972052;28;20043;-26
2021/07/05 03:13:12;;;;;;;0.30;0.30;;;23.40;62.80;;;;;;4974301;28;20081;-32
2021/07/05 03:15:37;;;;;;;0.40;0.30;;;23.40;62.80;;;;;;4975715;28;20030;-36
2021/07/05 03:18:04;;;;;;;0.63;0.30;;;23.40;62.80;;;;;;4975632;28;20401;-27
2021/07/05 03:20:31;;;;;;;0.17;0.17;;;23.40;62.90;;;;;;4976359;28;20034;-27
2021/07/05 03:22:57;;;;;;;0.30;0.20;;;23.40;63.10;;;;;;4990678;28;20026;-32
2021/07/05 03:25:24;;;;;;;0.10;0.10;;;23.40;62.90;;;;;;4975533;28;20050;-34
2021/07/05 03:27:50;;;;;;;0.35;0.25;;;23.30;62.90;;;;;;4975648;28;20027;-30
2021/07/05 03:30:16;;;;;;;0.20;0.20;;;23.30;63.00;;;;;;4975579;28;20450;-27
2021/07/05 03:32:42;;;;;;;0.30;0.20;;;23.30;63.00;;;;;;4972003;28;20501;-29
2021/07/05 03:35:09;;;;;;;0.17;0.17;;;23.30;62.80;;;;;;4975280;28;20042;-27
2021/07/05 03:37:35;;;;;;;0.10;0.10;;;23.30;62.80;;;;;;4990394;28;20118;-28
2021/07/05 03:40:01;;;;;;;0.77;0.20;;;23.40;62.80;;;;;;4974919;28;20097;-28
2021/07/05 03:42:27;;;;;;;0.10;0.10;;;23.40;62.70;;;;;;4975434;28;20098;-31
2021/07/05 03:44:52;;;;;;;0.20;0.10;;;23.30;62.80;;;;;;4975553;28;20577;-30
2021/07/05 03:47:18;;;;;;;0.20;0.20;;;23.30;62.80;;;;;;4975740;28;20026;-33
2021/07/05 03:49:43;;;;;;;0.52;0.20;;;23.40;62.70;;;;;;4974881;28;20049;-27
2021/07/05 03:52:10;;;;;;;0.20;0.20;;;23.30;62.80;;;;;;4975175;28;20061;-26
2021/07/05 03:54:36;;;;;;;0.20;0.20;;;23.30;62.80;;;;;;4975322;28;20046;-31
2021/07/05 03:57:03;;;;;;;0.20;0.20;;;23.30;62.80;;;;;;4975046;28;20019;-32
2021/07/05 03:59:29;;;;;;;0.28;0.20;;;23.30;62.70;;;;;;4975938;28;20031;-32
2021/07/05 04:01:54;;;;;;;1.45;0.28;;;23.30;62.70;;;;;;4974907;28;20027;-31
2021/07/05 04:04:20;;;;;;;0.20;0.20;;;23.30;62.70;;;;;;4974619;28;20050;-31
2021/07/05 04:06:46;;;;;;;2.30;0.20;;;23.30;62.80;;;;;;4974928;28;20019;-30
2021/07/05 04:09:11;;;;;;;0.20;0.20;;;23.30;63.00;;;;;;4974890;28;20045;-30
2021/07/05 04:11:37;;;;;;;0.35;0.20;;;23.30;62.80;;;;;;4974883;28;20085;-27
2021/07/05 04:14:02;;;;;;;0.52;0.17;;;23.30;63.50;;;;;;4974178;28;20047;-28
2021/07/05 04:16:28;;;;;;;0.20;0.20;;;23.30;62.60;;;;;;4974739;28;20023;-27
2021/07/05 04:18:53;;;;;;;0.28;0.20;;;23.30;62.70;;;;;;4974250;28;20089;-33
2021/07/05 04:21:20;;;;;;;0.20;0.20;;;23.30;62.70;;;;;;4974601;28;20022;-27
2021/07/05 04:23:47;;;;;;;0.55;0.30;;;23.30;62.80;;;;;;4973934;28;20039;-29
2021/07/05 04:26:13;;;;;;;0.30;0.30;;;23.30;62.70;;;;;;4974596;28;20030;-30
2021/07/05 04:28:38;;;;;;;0.10;0.10;;;23.30;62.60;;;;;;4973807;28;20042;-30
2021/07/05 04:31:04;;;;;;;0.30;0.30;;;23.20;62.70;;;;;;4973399;28;20060;-31
2021/07/05 04:33:30;;;;;;;0.15;0.15;;;23.20;62.80;;;;;;4972691;28;20058;-33
2021/07/05 04:35:55;;;;;;;0.38;0.28;;;23.30;62.70;;;;;;4971951;28;20049;-32
2021/07/05 04:38:21;;;;;;;0.52;0.28;;;23.20;62.60;;;;;;4972699;28;20031;-26
2021/07/05 04:40:47;;;;;;;0.30;0.30;;;23.20;62.60;;;;;;4972864;28;20034;-32
2021/07/05 04:43:12;;;;;;;0.20;0.20;;;23.20;62.60;;;;;;4973054;28;20035;-27
2021/07/05 04:45:38;;;;;;;0.20;0.20;;;23.20;62.50;;;;;;4972960;28;20034;-27
2021/07/05 04:48:06;;;;;;;0.30;0.30;;;23.20;63.30;;;;;;4972609;28;20041;-30
2021/07/05 04:50:32;;;;;;;0.30;0.30;;;23.30;62.50;;;;;;4972321;28;20118;-31
2021/07/05 04:52:58;;;;;;;0.25;0.25;;;23.20;62.70;;;;;;4971578;28;20688;-33
2021/07/05 04:55:23;;;;;;;0.30;0.20;;;23.10;62.80;;;;;;4972427;28;20026;-31
2021/07/05 04:57:50;;;;;;;0.20;0.20;;;23.20;62.60;;;;;;4972321;28;20406;-30
2021/07/05 05:00:21;;;;;;;0.13;0.13;;;23.20;62.70;;;;;;4968482;28;20023;-29
2021/07/05 05:02:46;;;;;;;0.30;0.30;;;23.20;62.70;;;;;;4962226;28;20030;-30
2021/07/05 05:05:12;;;;;;;0.32;0.30;;;23.20;62.80;;;;;;4966880;28;20042;-31
2021/07/05 05:07:39;;;;;;;0.40;0.30;;;23.20;62.80;;;;;;4962898;28;20110;-33
2021/07/05 05:10:07;;;;;;;0.40;0.30;;;23.20;62.60;;;;;;4964857;28;20066;-30
2021/07/05 05:12:33;;;;;;;0.10;0.10;;;23.20;62.60;;;;;;4961764;28;20569;-31
2021/07/05 05:14:58;;;;;;;0.40;0.32;;;23.20;62.60;;;;;;4964322;28;20161;-34
2021/07/05 05:17:24;;;;;;;0.50;0.40;;;23.10;62.70;;;;;;4965089;28;20031;-30
2021/07/05 05:19:49;;;;;;;0.22;0.20;;;23.20;62.70;;;;;;4962907;28;20544;-31
2021/07/05 05:22:15;;;;;;;0.20;0.20;;;23.20;62.70;;;;;;4964697;28;20493;-31
2021/07/05 05:24:41;;;;;;;0.20;0.20;;;23.10;62.80;;;;;;4963776;28;20038;-30
2021/07/05 05:27:07;;;;;;;0.38;0.22;;;23.10;62.70;;;;;;4963937;28;20058;-28
2021/07/05 05:29:32;;;;;;;0.30;0.30;;;23.10;62.80;;;;;;4963857;28;21602;-33
2021/07/05 05:31:58;;;;;;;0.20;0.20;;;23.20;62.90;;;;;;4621186;28;10000332;-29
2021/07/05 05:34:23;;;;;;;0.77;0.30;;;23.20;62.60;;;;;;4962425;28;20043;-29
2021/07/05 05:36:49;;;;;;;0.45;0.30;;;23.20;62.70;;;;;;4954342;28;20106;-26
2021/07/05 05:39:15;;;;;;;0.32;0.30;;;23.20;62.60;;;;;;4958446;28;20031;-25
2021/07/05 05:41:40;;;;;;;0.47;0.32;;;23.10;62.70;;;;;;4957342;28;20038;-30
2021/07/05 05:44:06;;;;;;;0.77;0.20;;;23.10;62.80;;;;;;4961830;28;20445;-33
2021/07/05 05:46:34;;;;;;;0.40;0.30;;;23.10;62.80;;;;;;4959648;28;20280;-39
2021/07/05 05:49:00;;;;;;;0.85;0.47;;;23.10;62.90;;;;;;4957025;28;20466;-36
2021/07/05 05:51:33;;;;;;;0.55;0.40;;;23.10;62.90;;;;;;4960037;28;20045;-35
2021/07/05 05:53:59;;;;;;;1.85;0.45;;;23.10;63.00;;;;;;4955469;28;20037;-30
2021/07/05 05:56:26;;;;;;;0.30;0.30;;;23.10;63.10;;;;;;4963416;28;20042;-33
2021/07/05 05:58:52;;;;;;;0.57;0.40;;;23.10;63.20;;;;;;4963714;28;20042;-28
2021/07/05 06:01:18;;;;;;;0.45;0.30;;;23.00;63.30;;;;;;4956858;28;20039;-34
2021/07/05 06:03:43;;;;;;;0.60;0.50;;;23.10;63.30;;;;;;4958186;28;20042;-34
2021/07/05 06:06:09;;;;;;;0.30;0.30;;;23.10;63.20;;;;;;4962113;28;20171;-29
2021/07/05 06:08:35;;;;;;;0.40;0.30;;;23.10;63.20;;;;;;4956749;28;20031;-34
2021/07/05 06:11:00;;;;;;;1.75;0.30;;;23.10;63.30;;;;;;4958841;28;20035;-32
2021/07/05 06:13:26;;;;;;;0.30;0.25;;;23.10;63.20;;;;;;4954385;28;20031;-31
2021/07/05 06:15:51;;;;;;;0.60;0.50;;;23.10;63.20;;;;;;4960694;28;20454;-32
2021/07/05 06:18:17;;;;;;;0.28;0.28;;;23.10;63.30;;;;;;4958823;28;20386;-32
2021/07/05 06:20:42;;;;;;;1.08;0.35;;;23.10;63.20;;;;;;4982424;28;20036;-33
2021/07/05 06:23:25;;;;;;;0.57;0.30;;;23.10;63.20;;;;;;4959241;28;20686;-32
2021/07/05 06:25:50;;;;;;;0.95;0.30;;;23.10;63.20;;;;;;4965547;28;20046;-35
2021/07/05 06:28:16;;;;;;;2.72;0.50;;;23.10;63.20;;;;;;4967179;28;20027;-26
2021/07/05 06:30:43;;;;;;;1.25;0.30;;;23.10;63.20;;;;;;4971813;28;20546;-30
2021/07/05 06:33:08;;;;;;;0.43;0.30;;;23.20;62.90;;;;;;4971310;28;20076;-27
2021/07/05 06:35:34;;;;;;;0.70;0.30;;;23.10;63.00;;;;;;4972741;28;20490;-35
2021/07/05 06:37:59;;;;;;;0.40;0.40;;;23.10;63.20;;;;;;4972077;28;20054;-30
2021/07/05 06:40:25;;;;;;;0.88;0.32;;;22.90;63.50;;;;;;4972021;28;20035;-32
2021/07/05 06:42:52;;;;;;;0.30;0.30;;;22.90;63.90;;;;;;4971052;28;20022;-33
2021/07/05 06:45:17;;;;;;;0.40;0.30;;;22.90;63.50;;;;;;4971248;28;20383;-27
2021/07/05 06:47:43;;;;;;;0.63;0.50;;;22.90;63.60;;;;;;4973029;28;20038;-29
2021/07/05 06:50:08;;;;;;;0.55;0.55;;;22.90;63.50;;;;;;4975836;28;20486;-27
2021/07/05 06:52:34;;;;;;;0.40;0.40;;;22.90;63.40;;;;;;4975779;28;20028;-36
2021/07/05 06:55:01;;;;;;;0.40;0.40;;;22.90;63.40;;;;;;4975434;28;20552;-26
2021/07/05 06:57:29;;;;;;;0.65;0.50;;;23.00;63.20;;;;;;4976061;28;20030;-32
2021/07/05 06:59:56;;;;;;;0.30;0.30;;;22.90;63.40;;;;;;4975673;28;20054;-32
2021/07/05 07:02:21;;;;;;;0.43;0.43;;;23.00;63.30;;;;;;4975434;28;20037;-29
2021/07/05 07:04:47;;;;;;;0.40;0.40;;;23.00;63.20;;;;;;4974935;28;20031;-30
2021/07/05 07:07:12;;;;;;;0.50;0.45;;;22.90;63.50;;;;;;4975562;28;20031;-32
2021/07/05 07:09:38;;;;;;;0.68;0.50;;;23.00;63.20;;;;;;4975574;28;20018;-31
2021/07/05 07:12:04;;;;;;;1.77;0.40;;;22.90;63.60;;;;;;4975364;28;20033;-32
2021/07/05 07:14:29;;;;;;;0.85;0.60;;;22.90;63.40;;;;;;4974791;28;20485;-27
2021/07/05 07:17:05;;;;;;;0.40;0.40;;;22.90;63.50;;;;;;4962338;28;20038;-33
2021/07/05 07:19:31;;;;;;;0.40;0.38;;;23.00;63.30;;;;;;4962851;28;20035;-34
2021/07/05 07:21:56;;;;;;;0.95;0.57;;;22.90;63.60;;;;;;4963945;28;20118;-28
2021/07/05 07:24:22;;;;;;;0.40;0.40;;;22.90;63.60;;;;;;4974356;28;20109;-33
2021/07/05 07:26:48;;;;;;;0.65;0.40;;;22.90;63.50;;;;;;4975271;28;20194;-33
2021/07/05 07:29:14;;;;;;;0.55;0.55;;;23.00;63.50;;;;;;4975111;28;20042;-33
2021/07/05 07:31:39;;;;;;;0.30;0.30;;;22.90;63.70;;;;;;4973466;28;20074;-35
2021/07/05 07:34:06;;;;;;;1.40;0.50;;;22.90;63.60;;;;;;4962996;28;20058;-32
2021/07/05 07:36:31;;;;;;;0.32;0.32;;;22.90;63.60;;;;;;4974942;28;20034;-37
2021/07/05 07:39:09;;;;;;;0.47;0.47;;;22.90;63.50;;;;;;4973954;28;20092;-31
2021/07/05 07:41:35;;;;;;;1.10;0.35;;;22.80;63.60;;;;;;4974556;28;20513;-30
2021/07/05 07:44:02;;;;;;;0.32;0.30;;;22.80;63.80;;;;;;4974286;28;20031;-30
2021/07/05 07:46:28;;;;;;;0.20;0.20;;;22.90;63.70;;;;;;4974879;28;20555;-29
2021/07/05 07:48:53;;;;;;;0.22;0.20;;;22.80;63.80;;;;;;4974713;28;20121;-32
2021/07/05 07:51:19;;;;;;;0.50;0.30;;;22.80;64.00;;;;;;4973966;28;20027;-32
2021/07/05 07:53:44;;;;;;;0.47;0.40;;;22.80;63.80;;;;;;4971952;28;20034;-34
2021/07/05 07:56:10;;;;;;;0.55;0.50;;;22.80;64.50;;;;;;4970515;28;20442;-30
2021/07/05 07:58:36;;;;;;;0.55;0.30;;;22.90;63.80;;;;;;4971510;28;20030;-35
2021/07/05 08:01:01;;;;;;;0.93;0.32;;;22.90;63.70;;;;;;4970757;28;20030;-28
2021/07/05 08:03:27;;;;;;;1.13;0.40;;;22.80;63.60;;;;;;4970829;28;20035;-39
2021/07/05 08:05:54;;;;;;;0.35;0.35;;;22.80;63.80;;;;;;4974370;28;20031;-34
2021/07/05 08:08:20;;;;;;;0.40;0.30;;;22.90;63.90;;;;;;4973877;28;20033;-30
2021/07/05 08:10:46;;;;;;;0.32;0.32;;;22.90;64.20;;;;;;4988515;28;20035;-32
2021/07/05 08:13:12;;;;;;;0.45;0.40;;;23.00;64.40;;;;;;4967787;28;20038;-33
2021/07/05 08:15:37;;;;;;;0.30;0.30;;;22.90;64.40;;;;;;4973707;28;20517;-30
2021/07/05 08:18:03;;;;;;;0.68;0.30;;;23.00;64.50;;;;;;4969625;28;20026;-30
2021/07/05 08:20:29;;;;;;;0.40;0.40;;;23.10;64.10;;;;;;4974716;28;20015;-32
2021/07/05 08:22:55;;;;;;;0.40;0.40;;;23.00;64.40;;;;;;4973630;28;20474;-31
2021/07/05 08:25:22;;;;;;;0.40;0.40;;;22.90;64.30;;;;;;4972718;28;20506;-35
2021/07/05 08:27:47;;;;;;;0.40;0.30;;;23.00;64.30;;;;;;4973730;28;20059;-34
2021/07/05 08:30:13;;;;;;;0.30;0.30;;;22.90;64.40;;;;;;4974198;28;20065;-29
2021/07/05 08:32:39;;;;;;;1.65;0.30;;;22.90;65.00;;;;;;4974261;28;20093;-34
2021/07/05 08:35:05;;;;;;;1.55;0.30;;;22.90;65.40;;;;;;4973656;28;20027;-32
2021/07/05 08:37:31;;;;;;;0.82;0.50;;;22.90;65.00;;;;;;4972186;28;20075;-31
2021/07/05 08:39:56;;;;;;;0.30;0.30;;;22.90;65.20;;;;;;4973350;28;20058;-33
2021/07/05 08:42:24;;;;;;;0.77;0.47;;;22.80;65.40;;;;;;4974087;28;20490;-31
2021/07/05 08:44:50;;;;;;;0.73;0.22;;;22.80;65.70;;;;;;4972989;28;20125;-35
2021/07/05 08:47:15;;;;;;;0.40;0.32;;;22.70;65.60;;;;;;4988799;28;20119;-29
2021/07/05 08:49:41;;;;;;;0.40;0.40;;;22.80;65.50;;;;;;4988744;28;20027;-32
2021/07/05 08:52:07;;;;;;;0.52;0.30;;;22.70;66.00;;;;;;4973062;28;20026;-30
2021/07/05 08:54:32;;;;;;;1.73;0.30;;;22.80;65.50;;;;;;4971511;28;20026;-33
2021/07/05 08:56:58;;;;;;;1.13;0.40;;;22.80;65.70;;;;;;4973251;28;20474;-30
2021/07/05 08:59:23;;;;;;;1.85;0.30;;;22.80;65.60;;;;;;4973608;28;20043;-36
2021/07/05 09:01:49;;;;;;;0.30;0.30;;;22.90;65.00;;;;;;4973607;28;20072;-28
2021/07/05 09:04:15;;;;;;;0.40;0.40;;;22.80;65.40;;;;;;4973307;28;20038;-32
2021/07/05 09:07:02;;;;;;;0.38;0.30;;;22.80;66.10;;;;;;4973520;28;20397;-35
2021/07/05 09:09:28;;;;;;;3.45;0.70;;;22.70;65.90;;;;;;4957822;28;20651;-32
2021/07/05 09:11:56;;;;;;;0.30;0.30;;;23.00;65.50;;;;;;4972804;28;20032;-31
2021/07/05 09:14:23;;;;;;;0.10;0.10;;;23.10;65.10;;;;;;4972346;28;20035;-31
2021/07/05 09:16:50;;;;;;;1.55;0.50;;;23.10;64.80;;;;;;4972878;28;20529;-32
2021/07/05 09:19:17;;;;;;;0.38;0.30;;;23.20;64.60;;;;;;4972309;28;20081;-30
2021/07/05 09:22:03;;;;;;;0.38;0.20;;;23.30;64.70;;;;;;4626398;28;9999970;-33
2021/07/05 09:24:43;;;;;;;1.20;0.35;;;23.20;64.80;;;;;;4956355;28;20043;-33
2021/07/05 09:27:19;;;;;;;0.47;0.30;;;23.20;65.00;;;;;;4969261;28;20038;-36
2021/07/05 09:29:45;;;;;;;1.15;0.32;;;23.20;65.00;;;;;;4966471;28;20066;-31
2021/07/05 09:32:12;;;;;;;0.32;0.20;;;23.30;65.90;;;;;;4967475;28;20113;-31
2021/07/05 09:34:40;;;;;;;0.50;0.38;;;23.30;65.50;;;;;;4966709;28;20776;-31
2021/07/05 09:37:19;;;;;;;0.20;0.20;;;23.40;65.90;;;;;;4969597;28;20023;-36
2021/07/05 09:40:05;;;;;;;1.73;0.40;;;23.40;65.80;;;;;;4963073;28;20037;-34
2021/07/05 09:42:36;;;;;;;1.85;0.25;;;23.40;65.80;;;;;;4956602;28;20031;-34
2021/07/05 09:45:05;;;;;;;0.90;0.30;;;23.50;65.80;;;;;;4964143;28;20148;-33
2021/07/05 09:47:31;;;;;;;1.33;0.30;;;23.50;67.00;;;;;;4961531;28;20078;-33
2021/07/05 09:49:57;;;;;;;0.88;0.30;;;23.50;66.60;;;;;;4959094;28;20051;-30
2021/07/05 09:52:26;;;;;;;0.30;0.30;;;23.60;67.10;;;;;;4947555;28;20030;-30
2021/07/05 09:54:54;;;;;;;0.80;0.30;;;23.60;67.30;;;;;;4960682;28;20032;-29
2021/07/05 09:57:27;;;;;;;2.15;0.30;;;23.60;67.50;;;;;;4960500;28;20498;-31
2021/07/05 09:59:54;;;;;;;0.32;0.30;;;23.60;67.40;;;;;;4955727;28;20051;-29
2021/07/05 10:02:19;;;;;;;1.15;0.30;;;23.70;67.10;;;;;;4958252;28;20035;-33
2021/07/05 10:04:46;;;;;;;2.47;0.32;;;23.70;67.70;;;;;;4961037;28;20039;-33
2021/07/05 10:07:12;;;;;;;0.52;0.32;;;23.70;67.80;;;;;;4955905;28;20497;-33
2021/07/05 10:09:39;;;;;;;0.50;0.30;;;23.70;67.70;;;;;;4965859;28;20537;-37
2021/07/05 10:12:25;;;;;;;0.80;0.40;;;23.80;67.20;;;;;;4963511;28;20027;-29
2021/07/05 10:15:05;;;;;;;0.52;0.35;;;23.70;67.10;;;;;;4957954;28;20046;-30
2021/07/05 10:17:36;;;;;;;0.55;0.43;;;23.70;67.30;;;;;;4953674;28;20522;-31
2021/07/05 10:20:07;;;;;;;0.65;0.65;;;23.70;67.30;;;;;;4965154;28;20046;-32
2021/07/05 10:22:32;;;;;;;1.10;1.10;;;23.70;67.90;;;;;;4963742;28;20046;-39
2021/07/05 10:24:59;;;;;;;2.10;0.98;;;23.70;69.50;;;;;;4963691;28;20494;-33
2021/07/05 10:27:25;;;;;;;0.82;0.82;;;23.60;69.00;;;;;;4961427;28;20058;-35
2021/07/05 10:29:51;;;;;;;0.90;0.90;;;23.50;69.00;;;;;;4960416;28;20037;-31
2021/07/05 10:32:17;;;;;;;1.05;0.90;;;23.60;68.80;;;;;;4963084;28;20568;-33
2021/07/05 10:34:43;;;;;;;0.75;0.75;;;23.60;69.30;;;;;;4958462;28;20406;-35
2021/07/05 10:37:15;;;;;;;1.60;0.80;;;23.80;68.90;;;;;;4960668;28;20027;-36
2021/07/05 10:39:41;;;;;;;1.25;0.98;;;23.80;68.30;;;;;;4981220;28;20034;-39
2021/07/05 10:42:29;;;;;;;1.10;1.00;;;23.90;68.10;;;;;;4963414;28;20039;-31
2021/07/05 10:44:54;;;;;;;3.63;1.05;;;24.10;67.50;;;;;;4611091;28;9999935;-35
2021/07/05 10:47:48;;;;;;;1.58;0.90;;;24.10;67.80;;;;;;4960833;28;20033;-35
2021/07/05 10:50:33;;;;;;;0.82;0.80;;;23.90;68.00;;;;;;4953989;28;20118;-37
2021/07/05 10:52:58;;;;;;;0.75;0.70;;;24.00;67.90;;;;;;4963627;28;20049;-31
2021/07/05 10:55:37;;;;;;;1.00;0.90;;;24.00;67.60;;;;;;4957036;28;20031;-29
2021/07/05 10:58:03;;;;;;;0.85;0.70;;;24.00;67.80;;;;;;4958753;28;20093;-33
2021/07/05 11:01:04;;;;;;;1.15;0.80;;;24.00;68.00;;;;;;4951717;28;20094;-34
2021/07/05 11:03:36;;;;;;;1.25;0.57;;;24.20;67.30;;;;;;4959401;28;20439;-37
2021/07/05 11:06:08;;;;;;;1.25;0.70;;;24.30;66.80;;;;;;4958171;28;20049;-29
2021/07/05 11:08:39;;;;;;;2.17;0.52;;;24.30;66.60;;;;;;4961613;28;20039;-31
2021/07/05 11:11:14;;;;;;;2.03;0.60;;;24.30;66.50;;;;;;4963432;28;20035;-37
2021/07/05 11:13:40;;;;;;;0.75;0.50;;;24.30;66.20;;;;;;4963059;28;20459;-39
2021/07/05 11:16:06;;;;;;;1.17;0.90;;;24.30;66.30;;;;;;4961167;28;20039;-34
2021/07/05 11:18:52;;;;;;;0.77;0.55;;;24.30;66.30;;;;;;4951643;28;20045;-34
2021/07/05 11:21:24;;;;;;;0.52;0.52;;;24.00;67.00;;;;;;4976636;28;20116;-30
2021/07/05 11:26:37;;;;;;;0.52;0.52;;;23.90;67.00;;;;;;4985480;28;20559;-30
2021/07/05 11:29:19;;;;;;;0.70;0.50;;;24.00;66.90;;;;;;4991580;28;20045;-29
2021/07/05 11:31:55;;;;;;;2.15;0.68;;;24.10;66.10;;;;;;4986658;28;20046;-31
2021/07/05 11:34:35;;;;;;;2.83;0.70;;;24.10;66.40;;;;;;4978088;28;20108;-28
2021/07/05 11:37:18;;;;;;;0.85;0.60;;;24.10;65.90;;;;;;4985616;28;20077;-34
2021/07/05 11:39:49;;;;;;;6.17;0.73;;;24.00;65.90;;;;;;4990860;28;20043;-30
2021/07/05 11:42:32;;;;;;;1.05;0.52;;;24.00;66.00;;;;;;4961070;28;20294;-33
2021/07/05 11:44:58;;;;;;;2.30;0.50;;;24.00;65.70;;;;;;4973660;28;20126;-28
2021/07/05 11:47:36;;;;;;;1.63;0.68;;;23.90;66.10;;;;;;4981109;28;20130;-30
2021/07/05 11:50:25;;;;;;;3.22;0.70;;;23.80;66.20;;;;;;4988993;28;20053;-28
2021/07/05 11:53:00;;;;;;;1.27;0.50;;;23.80;66.30;;;;;;4982221;28;20517;-29
2021/07/05 11:55:28;;;;;;;0.73;0.70;;;23.80;66.20;;;;;;4986330;28;20410;-27
2021/07/05 11:57:58;;;;;;;0.70;0.55;;;23.70;66.10;;;;;;4986642;28;20513;-29
2021/07/05 12:00:30;;;;;;;0.38;0.38;;;23.80;66.10;;;;;;4981248;28;20078;-31
2021/07/05 12:03:05;;;;;;;1.63;0.60;;;23.80;65.90;;;;;;4984408;28;20062;-30
2021/07/05 12:05:31;;;;;;;0.43;0.40;;;23.80;65.90;;;;;;4981428;28;20054;-34
2021/07/05 12:08:00;;;;;;;0.80;0.60;;;23.80;66.00;;;;;;4976978;28;20125;-28
2021/07/05 12:10:29;;;;;;;2.03;0.55;;;23.90;65.40;;;;;;4980481;28;20043;-31
2021/07/05 12:13:29;;;;;;;1.08;0.77;;;23.80;65.30;;;;;;4980769;28;20038;-30
2021/07/05 12:16:04;;;;;;;1.73;0.98;;;23.80;65.40;;;;;;4979957;28;20138;-33
2021/07/05 12:18:30;;;;;;;0.88;0.47;;;23.90;65.50;;;;;;4977055;28;20077;-31
2021/07/05 12:21:02;;;;;;;1.08;0.68;;;24.00;65.60;;;;;;4982458;28;20078;-35
2021/07/05 12:23:38;;;;;;;2.65;0.63;;;24.10;65.60;;;;;;4982835;28;20399;-28
2021/07/05 12:26:15;;;;;;;1.13;0.50;;;24.20;65.60;;;;;;4637453;28;10001364;-35
2021/07/05 12:29:13;;;;;;;1.65;0.68;;;24.20;65.60;;;;;;4978347;28;20141;-36
2021/07/05 12:32:04;;;;;;;0.93;0.70;;;24.10;65.60;;;;;;4981013;28;20057;-29
2021/07/05 12:34:34;;;;;;;1.23;0.60;;;24.10;66.00;;;;;;4981025;28;20065;-37
2021/07/05 12:37:00;;;;;;;1.67;0.70;;;24.20;65.50;;;;;;4965497;28;20101;-33
2021/07/05 12:39:25;;;;;;;3.28;1.13;;;24.10;65.50;;;;;;4966211;28;20046;-34
2021/07/05 12:41:51;;;;;;;1.90;1.30;;;24.20;65.40;;;;;;4954319;28;20039;-27
2021/07/05 12:44:16;;;;;;;1.73;1.27;;;24.10;65.30;;;;;;4975510;28;20051;-33
2021/07/05 12:46:42;;;;;;;2.53;0.90;;;24.10;65.60;;;;;;4964620;28;20038;-37
2021/07/05 12:49:08;;;;;;;3.63;0.90;;;24.20;65.00;;;;;;4969673;28;20179;-34
2021/07/05 12:51:34;;;;;;;1.20;1.10;;;24.20;64.90;;;;;;4954109;28;20495;-36